Emmanuel Tomasos — C6SS7 — position and weather

sailwx.info

Track history (hours):
 
Tides and Currents Weather Stations Pressure Air Temp Water Temp Dewpoint Dewpoint Depression Visibility Wind Speed Wind Dir Waves Ship Positions

Emmanuel Tomasos

Last reported at 2014-Dec-22 10:10 UTC. Time now 2014-Dec-22 13:29 UTC.
Position N 60°06' E 027°31'.

Length 182 m; draft 6.8 m.

Type: Tanker. MMSI: 311459000.

Date/timePositionNaut miles runAvg speedWind from/ knotsBaromVisibWave heightAir tempDewpointWater temp
2014-Dec-22 10:10N 60°06' E 027°31'813.4
2014-Dec-22 09:33N 60°02' E 027°17'1312.6
2014-Dec-22 08:33N 59°58' E 026°53'1313.0
2014-Dec-22 07:33N 59°58' E 026°27'5613.5
2014-Dec-22 03:24N 59°45' E 024°38'1113.5
2014-Dec-22 02:33N 59°42' E 024°16'1313.5
2014-Dec-22 01:33N 59°38' E 023°51'1413.9
2014-Dec-22 00:33N 59°33' E 023°24'34312.3
2014-Dec-20 20:33N 55°38' E 015°38'1313.1
2014-Dec-20 19:34N 55°33' E 015°17'1313.1
2014-Dec-20 18:33N 55°28' E 014°56'1313.1
2014-Dec-20 17:33N 55°21' E 014°37'1312.7
2014-Dec-20 16:34N 55°11' E 014°23'1312.9
2014-Dec-20 15:33N 55°11' E 013°60'1313.5
2014-Dec-20 14:33N 55°12' E 013°37'1313.5
2014-Dec-20 13:33N 55°13' E 013°13'1413.6
2014-Dec-20 12:33N 55°16' E 012°49'1010.3
2014-Dec-20 11:33N 55°24' E 012°39'1211.8
2014-Dec-20 10:33N 55°36' E 012°42'1414.0
2014-Dec-20 09:33N 55°50' E 012°42'1413.7
2014-Dec-20 08:33N 56°03' E 012°38'1313.2
2014-Dec-20 07:33N 56°11' E 012°19'1712.4
2014-Dec-20 06:13N 56°25' E 012°01'913.3
2014-Dec-20 05:33N 56°33' E 011°57'1413.7
2014-Dec-20 04:33N 56°46' E 011°51'1413.8
2014-Dec-20 03:33N 56°59' E 011°41'1414.0
2014-Dec-20 02:33N 57°13' E 011°35'1413.6
2014-Dec-20 01:33N 57°25' E 011°26'1313.4
2014-Dec-20 00:34N 57°35' E 011°08'1413.9
2014-Dec-19 23:34N 57°44' E 010°50'1414.3
2014-Dec-19 22:33N 57°49' E 010°24'1413.8
2014-Dec-19 21:33N 57°47' E 009°58'1414.1
2014-Dec-19 20:33N 57°43' E 009°34'5914.3
2014-Dec-19 16:24N 57°05' E 008°08'11611.6
2014-Dec-19 06:27N 55°18' E 006°48'1112.4
2014-Dec-19 05:33N 55°07' E 006°47'1212.1
2014-Dec-19 04:33N 54°55' E 006°50'1311.8
2014-Dec-19 03:26N 54°44' E 007°01'1011.2
2014-Dec-19 02:32N 54°35' E 007°09'1111.5
2014-Dec-19 01:33N 54°25' E 007°17'1211.4
2014-Dec-19 00:32N 54°14' E 007°26'1111.4
2014-Dec-18 23:33N 54°04' E 007°35'1312.1
2014-Dec-18 22:30N 53°53' E 007°46'1212.7
2014-Dec-18 21:33N 53°47' E 008°03'10 9.7
2014-Dec-18 20:33N 53°37' E 008°08'0 0.0
2014-Dec-18 16:15N 53°37' E 008°08'0 0.0
2014-Dec-18 15:15N 53°37' E 008°08'0 0.0
2014-Dec-18 14:03N 53°37' E 008°08'0 0.0
2014-Dec-18 13:27N 53°37' E 008°08'0 0.0
2014-Dec-18 11:30N 53°37' E 008°08'0 0.0
2014-Dec-18 10:10N 53°37' E 008°08'0 0.0
2014-Dec-18 09:27N 53°37' E 008°08'0 0.0
2014-Dec-18 06:10N 53°37' E 008°08'0 0.0
2014-Dec-18 05:33N 53°37' E 008°08'0 0.0
2014-Dec-18 04:33N 53°37' E 008°08'0 0.0
2014-Dec-18 03:33N 53°37' E 008°08'0 0.0
2014-Dec-18 02:10N 53°37' E 008°08'0 0.0
2014-Dec-18 01:33N 53°37' E 008°08'0 0.0
2014-Dec-18 00:30N 53°37' E 008°08'0 0.0
2014-Dec-17 23:30N 53°37' E 008°08'0 0.0
2014-Dec-17 20:10N 53°37' E 008°08'0 0.0
2014-Dec-17 19:30N 53°37' E 008°08'0 0.0
2014-Dec-17 18:10N 53°37' E 008°08'0 0.0
2014-Dec-17 17:10N 53°37' E 008°08'0 0.0
2014-Dec-17 16:27N 53°37' E 008°08'0 0.0
2014-Dec-17 15:30N 53°37' E 008°08'0 0.0
2014-Dec-17 14:33N 53°37' E 008°08'0 0.0
2014-Dec-17 13:33N 53°37' E 008°08'0 0.0
2014-Dec-17 12:09N 53°37' E 008°08'0 0.0
2014-Dec-17 11:30N 53°37' E 008°08'0 0.0
2014-Dec-17 10:12N 53°37' E 008°08'0 0.0
2014-Dec-17 09:15N 53°37' E 008°08'0 0.0
2014-Dec-17 08:09N 53°37' E 008°08'0 0.4
2014-Dec-17 07:33N 53°38' E 008°08'6 6.4
2014-Dec-17 06:33N 53°43' E 008°04'9 9.3
2014-Dec-17 05:33N 53°50' E 007°53'8 8.3
2014-Dec-17 04:33N 53°55' E 007°41'8 8.2
2014-Dec-17 03:33N 54°02' E 007°34'2 2.1
2014-Dec-17 02:32N 54°02' E 007°30'0 0.0
2014-Dec-17 01:32N 54°02' E 007°30'0 0.0
2014-Dec-17 00:29N 54°02' E 007°30'0 0.0
2014-Dec-16 23:26N 54°02' E 007°30'0 0.0
2014-Dec-16 22:32N 54°02' E 007°30'0 0.1
2014-Dec-16 21:32N 54°02' E 007°30'0 0.1
2014-Dec-16 20:23N 54°02' E 007°30'0 0.0
2014-Dec-16 19:32N 54°02' E 007°30'0 0.0
2014-Dec-16 18:29N 54°02' E 007°30'0 0.0
2014-Dec-16 17:32N 54°02' E 007°30'0 0.0
2014-Dec-16 16:26N 54°02' E 007°30'0 0.0
2014-Dec-16 15:26N 54°02' E 007°30'0 0.0
2014-Dec-16 14:33N 54°02' E 007°30'0 0.0
2014-Dec-16 13:33N 54°02' E 007°30'0 0.0
2014-Dec-16 12:33N 54°02' E 007°30'4 4.0
2014-Dec-16 11:33N 54°02' E 007°37'7 6.9
2014-Dec-16 10:33N 53°55' E 007°40'9 9.4
2014-Dec-16 09:33N 54°03' E 007°31'1010.1
2014-Dec-16 08:33N 54°12' E 007°24'1413.8
2014-Dec-16 07:33N 54°25' E 007°14'1312.6
2014-Dec-16 06:34N 54°36' E 007°05'1312.5
2014-Dec-16 05:30N 54°48' E 006°55'1212.6
2014-Dec-16 04:33N 54°59' E 006°47'1212.1
2014-Dec-16 03:32N 55°11' E 006°47'1212.7
2014-Dec-16 02:33N 55°24' E 006°49'1312.8
2014-Dec-16 01:33N 55°36' E 006°51'161 9.5
2014-Dec-15 08:29N 57°52' E 009°31'1010.6
2014-Dec-15 07:33N 57°52' E 009°50'1110.6
2014-Dec-15 06:33N 57°52' E 010°10'1310.9
2014-Dec-15 05:19N 57°52' E 010°35'810.5
2014-Dec-15 04:33N 57°48' E 010°48'1212.0
2014-Dec-15 03:33N 57°39' E 011°03'1312.5
2014-Dec-15 02:33N 57°31' E 011°21'1212.0
2014-Dec-15 01:34N 57°21' E 011°32'1312.5
2014-Dec-15 00:33N 57°09' E 011°39'1212.4
2014-Dec-14 23:33N 56°57' E 011°47'1212.4
2014-Dec-14 22:33N 56°45' E 011°54'13610.5
2014-Dec-14 09:33N 54°30' E 011°36'1312.7
2014-Dec-14 08:29N 54°27' E 011°59'2410.8
2014-Dec-14 06:19N 54°42' E 012°29'4712.5
2014-Dec-14 02:33N 54°60' E 013°44'1212.1
2014-Dec-14 01:33N 55°05' E 014°04'1312.7
2014-Dec-14 00:33N 55°14' E 014°19'1212.4
2014-Dec-13 23:33N 55°23' E 014°33'1212.0
2014-Dec-13 22:33N 55°30' E 014°50'1212.1
2014-Dec-13 21:33N 55°36' E 015°09'1211.9
2014-Dec-13 20:33N 55°39' E 015°30'  
Track history (hours):
 
Tides and Currents Weather Stations Pressure Air Temp Water Temp Dewpoint Dewpoint Depression Visibility Wind Speed Wind Dir Waves Ship Positions

Emmanuel Tomasos

Last reported at 2014-Dec-22 10:10 UTC. Time now 2014-Dec-22 13:29 UTC.
Position N 60°06' E 027°31'.

Length 182 m; draft 6.8 m.

Type: Tanker. MMSI: 311459000.

Date/timePositionNaut miles runAvg speedWind from/ knotsBaromVisibWave heightAir tempDewpointWater temp
2014-Dec-22 10:10N 60°06' E 027°31'813.4
2014-Dec-22 09:33N 60°02' E 027°17'1312.6
2014-Dec-22 08:33N 59°58' E 026°53'1313.0
2014-Dec-22 07:33N 59°58' E 026°27'5613.5
2014-Dec-22 03:24N 59°45' E 024°38'1113.5
2014-Dec-22 02:33N 59°42' E 024°16'1313.5
2014-Dec-22 01:33N 59°38' E 023°51'1413.9
2014-Dec-22 00:33N 59°33' E 023°24'34312.3
2014-Dec-20 20:33N 55°38' E 015°38'1313.1
2014-Dec-20 19:34N 55°33' E 015°17'1313.1
2014-Dec-20 18:33N 55°28' E 014°56'1313.1
2014-Dec-20 17:33N 55°21' E 014°37'1312.7
2014-Dec-20 16:34N 55°11' E 014°23'1312.9
2014-Dec-20 15:33N 55°11' E 013°60'1313.5
2014-Dec-20 14:33N 55°12' E 013°37'1313.5
2014-Dec-20 13:33N 55°13' E 013°13'1413.6
2014-Dec-20 12:33N 55°16' E 012°49'1010.3
2014-Dec-20 11:33N 55°24' E 012°39'1211.8
2014-Dec-20 10:33N 55°36' E 012°42'1414.0
2014-Dec-20 09:33N 55°50' E 012°42'1413.7
2014-Dec-20 08:33N 56°03' E 012°38'1313.2
2014-Dec-20 07:33N 56°11' E 012°19'1712.4
2014-Dec-20 06:13N 56°25' E 012°01'913.3
2014-Dec-20 05:33N 56°33' E 011°57'1413.7
2014-Dec-20 04:33N 56°46' E 011°51'1413.8
2014-Dec-20 03:33N 56°59' E 011°41'1414.0
2014-Dec-20 02:33N 57°13' E 011°35'1413.6
2014-Dec-20 01:33N 57°25' E 011°26'1313.4
2014-Dec-20 00:34N 57°35' E 011°08'1413.9
2014-Dec-19 23:34N 57°44' E 010°50'1414.3
2014-Dec-19 22:33N 57°49' E 010°24'1413.8
2014-Dec-19 21:33N 57°47' E 009°58'1414.1
2014-Dec-19 20:33N 57°43' E 009°34'5914.3
2014-Dec-19 16:24N 57°05' E 008°08'11611.6
2014-Dec-19 06:27N 55°18' E 006°48'1112.4
2014-Dec-19 05:33N 55°07' E 006°47'1212.1
2014-Dec-19 04:33N 54°55' E 006°50'1311.8
2014-Dec-19 03:26N 54°44' E 007°01'1011.2
2014-Dec-19 02:32N 54°35' E 007°09'1111.5
2014-Dec-19 01:33N 54°25' E 007°17'1211.4
2014-Dec-19 00:32N 54°14' E 007°26'1111.4
2014-Dec-18 23:33N 54°04' E 007°35'1312.1
2014-Dec-18 22:30N 53°53' E 007°46'1212.7
2014-Dec-18 21:33N 53°47' E 008°03'10 9.7
2014-Dec-18 20:33N 53°37' E 008°08'0 0.0
2014-Dec-18 16:15N 53°37' E 008°08'0 0.0
2014-Dec-18 15:15N 53°37' E 008°08'0 0.0
2014-Dec-18 14:03N 53°37' E 008°08'0 0.0
2014-Dec-18 13:27N 53°37' E 008°08'0 0.0
2014-Dec-18 11:30N 53°37' E 008°08'0 0.0
2014-Dec-18 10:10N 53°37' E 008°08'0 0.0
2014-Dec-18 09:27N 53°37' E 008°08'0 0.0
2014-Dec-18 06:10N 53°37' E 008°08'0 0.0
2014-Dec-18 05:33N 53°37' E 008°08'0 0.0
2014-Dec-18 04:33N 53°37' E 008°08'0 0.0
2014-Dec-18 03:33N 53°37' E 008°08'0 0.0
2014-Dec-18 02:10N 53°37' E 008°08'0 0.0
2014-Dec-18 01:33N 53°37' E 008°08'0 0.0
2014-Dec-18 00:30N 53°37' E 008°08'0 0.0
2014-Dec-17 23:30N 53°37' E 008°08'0 0.0
2014-Dec-17 20:10N 53°37' E 008°08'0 0.0
2014-Dec-17 19:30N 53°37' E 008°08'0 0.0
2014-Dec-17 18:10N 53°37' E 008°08'0 0.0
2014-Dec-17 17:10N 53°37' E 008°08'0 0.0
2014-Dec-17 16:27N 53°37' E 008°08'0 0.0
2014-Dec-17 15:30N 53°37' E 008°08'0 0.0
2014-Dec-17 14:33N 53°37' E 008°08'0 0.0
2014-Dec-17 13:33N 53°37' E 008°08'0 0.0
2014-Dec-17 12:09N 53°37' E 008°08'0 0.0
2014-Dec-17 11:30N 53°37' E 008°08'0 0.0
2014-Dec-17 10:12N 53°37' E 008°08'0 0.0
2014-Dec-17 09:15N 53°37' E 008°08'0 0.0
2014-Dec-17 08:09N 53°37' E 008°08'0 0.4
2014-Dec-17 07:33N 53°38' E 008°08'6 6.4
2014-Dec-17 06:33N 53°43' E 008°04'9 9.3
2014-Dec-17 05:33N 53°50' E 007°53'8 8.3
2014-Dec-17 04:33N 53°55' E 007°41'8 8.2
2014-Dec-17 03:33N 54°02' E 007°34'2 2.1
2014-Dec-17 02:32N 54°02' E 007°30'0 0.0
2014-Dec-17 01:32N 54°02' E 007°30'0 0.0
2014-Dec-17 00:29N 54°02' E 007°30'0 0.0
2014-Dec-16 23:26N 54°02' E 007°30'0 0.0
2014-Dec-16 22:32N 54°02' E 007°30'0 0.1
2014-Dec-16 21:32N 54°02' E 007°30'0 0.1
2014-Dec-16 20:23N 54°02' E 007°30'0 0.0
2014-Dec-16 19:32N 54°02' E 007°30'0 0.0
2014-Dec-16 18:29N 54°02' E 007°30'0 0.0
2014-Dec-16 17:32N 54°02' E 007°30'0 0.0
2014-Dec-16 16:26N 54°02' E 007°30'0 0.0
2014-Dec-16 15:26N 54°02' E 007°30'0 0.0
2014-Dec-16 14:33N 54°02' E 007°30'0 0.0
2014-Dec-16 13:33N 54°02' E 007°30'0 0.0
2014-Dec-16 12:33N 54°02' E 007°30'4 4.0
2014-Dec-16 11:33N 54°02' E 007°37'7 6.9
2014-Dec-16 10:33N 53°55' E 007°40'9 9.4
2014-Dec-16 09:33N 54°03' E 007°31'1010.1
2014-Dec-16 08:33N 54°12' E 007°24'1413.8
2014-Dec-16 07:33N 54°25' E 007°14'1312.6
2014-Dec-16 06:34N 54°36' E 007°05'1312.5
2014-Dec-16 05:30N 54°48' E 006°55'1212.6
2014-Dec-16 04:33N 54°59' E 006°47'1212.1
2014-Dec-16 03:32N 55°11' E 006°47'1212.7
2014-Dec-16 02:33N 55°24' E 006°49'1312.8
2014-Dec-16 01:33N 55°36' E 006°51'161 9.5
2014-Dec-15 08:29N 57°52' E 009°31'1010.6
2014-Dec-15 07:33N 57°52' E 009°50'1110.6
2014-Dec-15 06:33N 57°52' E 010°10'1310.9
2014-Dec-15 05:19N 57°52' E 010°35'810.5
2014-Dec-15 04:33N 57°48' E 010°48'1212.0
2014-Dec-15 03:33N 57°39' E 011°03'1312.5
2014-Dec-15 02:33N 57°31' E 011°21'1212.0
2014-Dec-15 01:34N 57°21' E 011°32'1312.5
2014-Dec-15 00:33N 57°09' E 011°39'1212.4
2014-Dec-14 23:33N 56°57' E 011°47'1212.4
2014-Dec-14 22:33N 56°45' E 011°54'13610.5
2014-Dec-14 09:33N 54°30' E 011°36'1312.7
2014-Dec-14 08:29N 54°27' E 011°59'2410.8
2014-Dec-14 06:19N 54°42' E 012°29'4712.5
2014-Dec-14 02:33N 54°60' E 013°44'1212.1
2014-Dec-14 01:33N 55°05' E 014°04'1312.7
2014-Dec-14 00:33N 55°14' E 014°19'1212.4
2014-Dec-13 23:33N 55°23' E 014°33'1212.0
2014-Dec-13 22:33N 55°30' E 014°50'1212.1
2014-Dec-13 21:33N 55°36' E 015°09'1211.9
2014-Dec-13 20:33N 55°39' E 015°30'  

Dump ship's entire track history